Time;durP1;ratioP1;P1;durP2;ratioP2;P2;SDS_P1;SDS_P2;PMS_P1;PMS_P2;Temp;Humidity;BMP_temperature;BMP_pressure;BME280_temperature;BME280_humidity;BME280_pressure;Samples;Min_cycle;Max_cycle;Signal;HPM_P1;HPM_P2
2023/01/22 04:02:57;;;;;;;32.40;17.10;;;0.20;99.90;;;;;;4976535;28;20224;-83
2023/01/22 04:05:26;;;;;;;26.40;18.27;;;0.20;99.90;;;;;;4980735;28;20216;-85
2023/01/22 04:07:52;;;;;;;24.10;16.73;;;0.20;99.90;;;;;;4979948;28;20313;-85
2023/01/22 04:10:20;;;;;;;26.43;17.43;;;0.20;99.90;;;;;;4978217;28;20420;-85
2023/01/22 04:12:46;;;;;;;28.70;17.97;;;0.20;99.90;;;;;;4978525;28;20199;-85
2023/01/22 04:15:17;;;;;;;26.33;16.83;;;0.20;99.90;;;;;;4977981;28;20528;-84
2023/01/22 04:17:43;;;;;;;26.63;18.53;;;0.30;99.90;;;;;;4975302;28;20236;-83
2023/01/22 04:20:09;;;;;;;31.73;18.50;;;0.30;99.90;;;;;;4977369;28;20289;-84
2023/01/22 04:22:35;;;;;;;25.30;17.90;;;0.30;99.90;;;;;;5008639;28;20207;-83
2023/01/22 04:25:05;;;;;;;29.83;19.87;;;0.30;99.90;;;;;;5007229;28;20177;-84
2023/01/22 04:27:36;;;;;;;27.33;20.90;;;0.20;99.90;;;;;;5007145;28;20260;-83
2023/01/22 04:30:04;;;;;;;26.77;18.33;;;0.30;99.90;;;;;;5008939;28;20182;-84
2023/01/22 04:32:30;;;;;;;27.40;17.40;;;0.30;99.90;;;;;;5009159;28;20251;-84
2023/01/22 04:34:56;;;;;;;25.00;17.47;;;0.30;99.90;;;;;;5012739;28;20185;-83
2023/01/22 04:37:22;;;;;;;29.87;19.13;;;0.30;99.90;;;;;;5025254;28;20193;-85
2023/01/22 04:39:48;;;;;;;25.13;18.40;;;0.20;99.90;;;;;;5009219;28;20190;-85
2023/01/22 04:42:14;;;;;;;28.03;18.70;;;0.20;99.90;;;;;;5008703;28;20207;-85
2023/01/22 04:44:40;;;;;;;30.33;19.67;;;0.20;99.90;;;;;;5009215;28;20286;-84
2023/01/22 04:47:06;;;;;;;25.10;17.23;;;0.20;99.90;;;;;;5009483;28;20187;-84
2023/01/22 04:49:31;;;;;;;26.70;19.20;;;0.20;99.90;;;;;;4973317;28;20188;-71
2023/01/22 04:51:57;;;;;;;28.40;18.93;;;0.30;99.90;;;;;;4955717;28;20209;-71
2023/01/22 04:54:23;;;;;;;25.23;18.33;;;0.30;99.90;;;;;;4951988;28;20190;-71
2023/01/22 04:56:49;;;;;;;24.33;17.07;;;0.30;99.90;;;;;;4951635;29;20182;-71
2023/01/22 04:59:15;;;;;;;28.50;18.57;;;0.30;99.90;;;;;;4953168;28;20224;-71
2023/01/22 05:01:41;;;;;;;30.67;18.40;;;0.30;99.90;;;;;;4973539;28;20255;-71
2023/01/22 05:04:07;;;;;;;27.57;18.83;;;0.30;99.90;;;;;;4975791;28;20243;-72
2023/01/22 05:06:32;;;;;;;31.07;18.87;;;0.30;99.90;;;;;;4974475;28;20181;-71
2023/01/22 05:08:58;;;;;;;30.83;19.13;;;0.40;99.90;;;;;;4975116;28;20259;-71
2023/01/22 05:11:24;;;;;;;25.33;17.37;;;0.30;99.90;;;;;;4974039;28;20674;-71
2023/01/22 05:13:49;;;;;;;29.70;18.77;;;0.30;99.90;;;;;;4974923;28;20182;-70
2023/01/22 05:16:15;;;;;;;27.27;18.00;;;0.30;99.90;;;;;;4973467;28;20185;-71
2023/01/22 05:18:41;;;;;;;25.97;18.50;;;0.30;99.90;;;;;;5005890;28;20227;-71
2023/01/22 05:21:06;;;;;;;31.23;19.00;;;0.30;99.90;;;;;;4973604;28;20278;-71
2023/01/22 05:23:33;;;;;;;27.17;19.00;;;0.30;99.90;;;;;;4975119;28;20187;-71
2023/01/22 05:25:58;;;;;;;27.37;17.87;;;0.30;99.90;;;;;;4974682;28;20268;-71
2023/01/22 05:28:24;;;;;;;26.80;19.40;;;0.30;99.90;;;;;;4974312;28;20283;-71
2023/01/22 05:30:50;;;;;;;34.17;19.90;;;0.30;99.90;;;;;;4974698;28;20724;-72
2023/01/22 05:33:15;;;;;;;25.40;18.37;;;0.30;99.90;;;;;;4976034;28;20280;-72
2023/01/22 05:35:41;;;;;;;30.93;20.30;;;0.30;99.90;;;;;;4974282;28;20190;-71
2023/01/22 05:38:07;;;;;;;32.07;20.60;;;0.30;99.90;;;;;;4974374;28;20725;-71
2023/01/22 05:40:33;;;;;;;28.80;19.23;;;0.30;99.90;;;;;;5005744;28;20277;-71
2023/01/22 05:43:01;;;;;;;30.43;19.73;;;0.30;99.90;;;;;;4973845;28;20283;-71
2023/01/22 05:45:27;;;;;;;30.07;19.20;;;0.30;99.90;;;;;;4974855;28;20525;-72
2023/01/22 05:47:53;;;;;;;31.97;20.83;;;0.30;99.90;;;;;;4974477;28;20216;-71
2023/01/22 05:50:20;;;;;;;31.07;18.63;;;0.30;99.90;;;;;;4974649;28;20176;-71
2023/01/22 05:52:45;;;;;;;28.67;19.10;;;0.30;99.90;;;;;;4973506;28;20583;-71
2023/01/22 05:55:11;;;;;;;30.97;18.97;;;0.30;99.90;;;;;;4973041;28;20184;-71
2023/01/22 05:57:37;;;;;;;26.87;19.07;;;0.30;99.90;;;;;;4974166;28;20197;-71
2023/01/22 06:00:04;;;;;;;29.40;19.00;;;0.30;99.90;;;;;;4974379;28;20769;-71
2023/01/22 06:02:31;;;;;;;30.60;19.43;;;0.30;99.90;;;;;;5005728;28;20583;-71
2023/01/22 06:04:56;;;;;;;26.17;18.30;;;0.30;99.90;;;;;;4973627;28;20177;-72
2023/01/22 06:07:22;;;;;;;28.67;19.10;;;0.30;99.90;;;;;;4974371;28;20221;-72
2023/01/22 06:09:48;;;;;;;29.33;18.73;;;0.30;99.90;;;;;;4974191;28;20215;-72
2023/01/22 06:12:14;;;;;;;26.73;19.03;;;0.30;99.90;;;;;;5005490;28;20238;-71
2023/01/22 06:14:40;;;;;;;28.20;19.93;;;0.30;99.90;;;;;;4973479;28;20181;-71
2023/01/22 06:17:06;;;;;;;28.60;18.83;;;0.30;99.90;;;;;;4973951;28;20184;-71
2023/01/22 06:19:32;;;;;;;28.70;20.67;;;0.30;99.90;;;;;;4974363;28;20291;-71
2023/01/22 06:21:58;;;;;;;27.27;19.20;;;0.30;99.90;;;;;;4972652;28;20258;-71
2023/01/22 06:24:23;;;;;;;29.00;19.37;;;0.30;99.90;;;;;;4962120;28;20241;-71
2023/01/22 06:26:49;;;;;;;29.77;19.57;;;0.30;99.90;;;;;;4962182;28;20485;-71
2023/01/22 06:29:15;;;;;;;29.83;19.53;;;0.30;99.90;;;;;;4972284;28;20618;-71
2023/01/22 06:31:41;;;;;;;28.37;19.70;;;0.40;99.90;;;;;;4974006;28;20284;-71
2023/01/22 06:34:08;;;;;;;28.70;19.60;;;0.40;99.90;;;;;;4974363;28;20238;-71
2023/01/22 06:36:33;;;;;;;33.83;20.07;;;0.40;99.90;;;;;;4974268;28;20217;-71
2023/01/22 06:38:59;;;;;;;30.90;19.83;;;0.40;99.90;;;;;;4972338;28;20830;-71
2023/01/22 06:41:25;;;;;;;28.17;19.30;;;0.40;99.90;;;;;;4970289;28;20209;-70
2023/01/22 06:43:51;;;;;;;30.13;21.20;;;0.40;99.90;;;;;;4954814;29;20201;-71
2023/01/22 06:46:17;;;;;;;29.10;19.93;;;0.40;99.90;;;;;;4954832;29;20186;-71
2023/01/22 06:48:42;;;;;;;33.80;20.17;;;0.40;99.90;;;;;;4954110;29;20794;-70
2023/01/22 06:51:09;;;;;;;28.10;19.97;;;0.40;99.90;;;;;;4954398;29;20260;-71
2023/01/22 06:53:35;;;;;;;32.80;21.63;;;0.40;99.90;;;;;;4953770;29;20638;-71
2023/01/22 06:56:01;;;;;;;33.40;21.43;;;0.40;99.90;;;;;;4970560;28;20177;-72
2023/01/22 06:58:27;;;;;;;34.33;21.63;;;0.40;99.90;;;;;;4973154;28;20199;-71
2023/01/22 07:00:53;;;;;;;28.17;21.33;;;0.30;99.90;;;;;;5005000;28;20308;-70
2023/01/22 07:03:19;;;;;;;28.80;19.63;;;0.40;99.90;;;;;;4974416;28;20271;-71
2023/01/22 07:05:45;;;;;;;27.67;19.77;;;0.40;99.90;;;;;;4973966;28;20189;-71
2023/01/22 07:08:14;;;;;;;30.17;19.47;;;0.50;99.90;;;;;;4972659;28;20210;-71
2023/01/22 07:10:41;;;;;;;29.77;19.60;;;0.50;99.90;;;;;;4972167;28;20609;-72
2023/01/22 07:13:09;;;;;;;34.10;20.07;;;0.50;99.90;;;;;;4972247;28;20177;-71
2023/01/22 07:15:34;;;;;;;31.27;19.13;;;0.50;99.90;;;;;;4971924;28;20188;-71
2023/01/22 07:18:00;;;;;;;30.63;20.67;;;0.50;99.90;;;;;;4972714;28;20550;-71
2023/01/22 07:20:26;;;;;;;29.93;20.47;;;0.50;99.90;;;;;;4972136;28;20192;-71
2023/01/22 07:22:52;;;;;;;30.30;21.60;;;0.50;99.90;;;;;;4970358;28;20189;-71
2023/01/22 07:25:18;;;;;;;31.80;22.17;;;0.50;99.90;;;;;;4971744;28;20687;-71
2023/01/22 07:27:44;;;;;;;30.53;21.83;;;0.60;99.90;;;;;;4971177;28;20849;-71
2023/01/22 07:30:10;;;;;;;34.70;23.37;;;0.60;99.90;;;;;;4972117;28;20198;-72
2023/01/22 07:32:36;;;;;;;36.50;23.80;;;0.60;99.90;;;;;;4971784;28;20285;-72
2023/01/22 07:35:02;;;;;;;30.93;20.97;;;0.60;99.90;;;;;;4971452;28;20281;-71
2023/01/22 07:37:27;;;;;;;30.83;21.73;;;0.60;99.90;;;;;;4971530;28;20186;-71
2023/01/22 07:39:53;;;;;;;32.33;21.60;;;0.70;99.90;;;;;;4964670;28;20213;-71
2023/01/22 07:42:19;;;;;;;26.63;19.37;;;0.70;99.90;;;;;;4971982;28;20706;-71
2023/01/22 07:44:44;;;;;;;33.73;19.23;;;0.70;99.90;;;;;;4972302;28;20184;-71
2023/01/22 07:47:10;;;;;;;31.63;20.63;;;0.70;99.90;;;;;;5003372;28;20268;-71
2023/01/22 07:49:36;;;;;;;30.63;21.17;;;0.70;99.90;;;;;;4972260;28;20181;-71
2023/01/22 07:52:02;;;;;;;27.67;20.00;;;0.80;99.90;;;;;;4973009;28;20248;-71
2023/01/22 07:54:27;;;;;;;36.40;32.30;;;0.70;99.90;;;;;;4974761;28;20261;-71
2023/01/22 07:56:53;;;;;;;35.60;21.63;;;0.80;99.90;;;;;;4972656;28;20179;-71
2023/01/22 07:59:19;;;;;;;31.80;20.80;;;0.80;99.90;;;;;;4969448;28;20189;-71
2023/01/22 08:01:45;;;;;;;40.70;20.30;;;0.90;99.90;;;;;;4971491;28;20220;-71
2023/01/22 08:04:11;;;;;;;34.03;21.10;;;0.90;99.90;;;;;;4972278;28;20793;-71
2023/01/22 08:06:37;;;;;;;40.50;23.47;;;0.90;99.90;;;;;;4969461;28;20181;-71
2023/01/22 08:09:04;;;;;;;30.03;19.33;;;0.90;99.90;;;;;;4962951;28;20206;-70
2023/01/22 08:11:31;;;;;;;33.03;20.10;;;1.00;99.90;;;;;;4955156;28;20274;-71
2023/01/22 08:13:57;;;;;;;30.27;20.47;;;0.90;99.90;;;;;;4952925;29;20189;-71
2023/01/22 08:16:23;;;;;;;32.70;20.70;;;0.90;99.90;;;;;;4965383;28;20196;-72
2023/01/22 08:18:48;;;;;;;29.23;19.77;;;0.90;99.90;;;;;;4960784;28;20234;-71
2023/01/22 08:21:14;;;;;;;30.27;20.37;;;0.90;99.90;;;;;;4953177;28;20682;-72
2023/01/22 08:23:40;;;;;;;33.43;20.90;;;1.00;99.90;;;;;;4956547;28;20181;-70
2023/01/22 08:26:06;;;;;;;35.47;21.13;;;1.10;99.90;;;;;;4971242;28;20192;-72
2023/01/22 08:28:31;;;;;;;35.57;22.73;;;1.10;99.90;;;;;;4971188;28;20307;-70
2023/01/22 08:30:59;;;;;;;35.20;23.77;;;1.20;99.90;;;;;;4970180;28;20201;-70
2023/01/22 08:33:26;;;;;;;37.43;21.87;;;1.20;99.90;;;;;;4970847;28;20259;-69
2023/01/22 08:35:52;;;;;;;32.53;21.77;;;1.20;99.90;;;;;;4967339;28;20596;-70
2023/01/22 08:38:18;;;;;;;35.40;22.80;;;1.20;99.90;;;;;;4949939;29;20268;-70
2023/01/22 08:40:50;;;;;;;32.90;21.13;;;1.20;99.90;;;;;;4951622;29;20694;-72
2023/01/22 08:43:16;;;;;;;33.33;20.63;;;1.20;99.90;;;;;;4953343;28;20710;-71
2023/01/22 08:45:43;;;;;;;32.90;22.20;;;1.20;99.90;;;;;;4971240;28;20206;-70
2023/01/22 08:48:09;;;;;;;36.30;21.10;;;1.20;99.90;;;;;;4956592;28;20272;-72
2023/01/22 08:50:35;;;;;;;32.03;20.20;;;1.20;99.90;;;;;;4950446;28;20173;-69
2023/01/22 08:53:00;;;;;;;32.63;19.30;;;1.30;99.90;;;;;;4949601;28;20685;-70
2023/01/22 08:55:26;;;;;;;31.87;20.80;;;1.30;99.90;;;;;;4952876;28;20174;-67
2023/01/22 08:57:55;;;;;;;34.23;22.33;;;1.30;99.90;;;;;;4957451;28;20199;-67
2023/01/22 09:00:23;;;;;;;35.60;22.10;;;1.30;99.90;;;;;;4970986;28;20229;-67
2023/01/22 09:02:49;;;;;;;39.77;23.67;;;1.40;99.90;;;;;;4970826;28;20222;-66
2023/01/22 09:05:14;;;;;;;31.60;22.57;;;1.50;99.90;;;;;;4956687;28;20196;-67
2023/01/22 09:07:41;;;;;;;39.90;24.40;;;1.50;99.90;;;;;;4969183;28;20216;-67
2023/01/22 09:10:11;;;;;;;36.13;27.83;;;1.60;99.90;;;;;;4970804;28;20187;-67
2023/01/22 09:12:38;;;;;;;38.37;29.20;;;1.70;99.90;;;;;;4969531;28;20243;-67
2023/01/22 09:15:04;;;;;;;41.00;28.83;;;1.80;99.90;;;;;;4969077;28;20269;-67
2023/01/22 09:17:30;;;;;;;39.87;30.17;;;2.00;99.90;;;;;;4968950;28;20215;-68
2023/01/22 09:19:55;;;;;;;37.23;29.37;;;2.10;99.90;;;;;;4971509;28;20187;-67
2023/01/22 09:22:21;;;;;;;34.73;23.67;;;2.20;99.90;;;;;;4971016;28;20211;-68
2023/01/22 09:24:47;;;;;;;33.63;21.77;;;2.20;99.90;;;;;;4970495;28;20649;-67
2023/01/22 09:27:13;;;;;;;33.60;21.37;;;2.20;99.90;;;;;;4970838;28;20188;-68
2023/01/22 09:29:38;;;;;;;35.87;22.97;;;2.20;99.90;;;;;;4971659;28;20191;-67
2023/01/22 09:32:04;;;;;;;35.67;23.30;;;2.20;99.90;;;;;;4970405;28;20204;-66
2023/01/22 09:34:30;;;;;;;39.90;29.03;;;2.10;99.90;;;;;;5002775;28;20173;-67
2023/01/22 09:36:56;;;;;;;33.20;26.93;;;2.20;99.90;;;;;;4971168;28;20184;-66
2023/01/22 09:39:22;;;;;;;36.77;23.70;;;2.20;99.90;;;;;;4971100;28;20188;-66
2023/01/22 09:41:54;;;;;;;28.63;21.83;;;2.20;99.90;;;;;;4971108;28;20977;-67
2023/01/22 09:44:31;;;;;;;29.63;19.90;;;2.30;99.90;;;;;;4970601;28;20189;-66
2023/01/22 09:47:02;;;;;;;27.03;19.17;;;2.40;99.90;;;;;;4974829;28;20230;-66
2023/01/22 09:49:49;;;;;;;29.23;18.60;;;2.30;99.90;;;;;;4973997;28;20220;-67
2023/01/22 09:52:15;;;;;;;23.70;17.93;;;2.30;99.90;;;;;;4975168;28;20204;-68
2023/01/22 09:54:42;;;;;;;28.67;17.53;;;2.30;99.90;;;;;;4974948;28;20545;-67
2023/01/22 09:57:14;;;;;;;24.77;18.07;;;2.30;99.90;;;;;;4975031;28;20189;-67
2023/01/22 10:00:01;;;;;;;26.03;17.23;;;2.40;99.90;;;;;;4975156;28;20659;-67
2023/01/22 10:03:02;;;;;;;31.60;19.27;;;2.40;99.90;;;;;;4974779;28;20231;-67
2023/01/22 10:05:36;;;;;;;26.87;18.93;;;2.30;99.90;;;;;;4974602;28;20234;-68
2023/01/22 10:08:22;;;;;;;26.63;19.80;;;2.30;99.90;;;;;;4974133;28;20235;-68
2023/01/22 10:10:49;;;;;;;28.00;18.83;;;2.30;99.90;;;;;;4974691;28;20237;-68
2023/01/22 10:13:17;;;;;;;27.90;20.13;;;2.30;99.90;;;;;;4974990;28;20517;-68
2023/01/22 10:15:44;;;;;;;36.03;24.23;;;2.30;99.90;;;;;;4974714;28;20184;-68
2023/01/22 10:18:43;;;;;;;28.10;18.07;;;2.20;99.90;;;;;;4974365;28;20178;-68
2023/01/22 10:21:28;;;;;;;25.87;17.40;;;2.30;99.90;;;;;;4974611;28;20306;-68
2023/01/22 10:23:55;;;;;;;28.37;17.97;;;2.30;99.90;;;;;;4974541;28;20291;-68
2023/01/22 10:26:53;;;;;;;27.17;20.10;;;2.20;99.90;;;;;;4974828;28;20686;-69
2023/01/22 10:29:36;;;;;;;26.50;18.90;;;2.20;99.90;;;;;;4970272;28;20311;-69
2023/01/22 10:32:26;;;;;;;28.80;19.37;;;2.30;99.90;;;;;;4974315;28;20209;-68
2023/01/22 10:35:05;;;;;;;28.70;19.63;;;2.20;99.90;;;;;;4968967;28;20188;-69
2023/01/22 10:37:52;;;;;;;34.53;20.70;;;2.20;99.90;;;;;;4973804;28;20190;-69
2023/01/22 10:40:23;;;;;;;34.27;20.10;;;2.30;99.90;;;;;;4974297;28;20227;-68
2023/01/22 10:43:04;;;;;;;31.37;19.50;;;2.30;99.90;;;;;;4974299;28;20219;-69
2023/01/22 10:45:31;;;;;;;31.07;20.57;;;2.30;99.90;;;;;;4974430;28;20551;-69
2023/01/22 10:48:14;;;;;;;29.00;19.37;;;2.30;99.90;;;;;;4973667;28;20707;-69
2023/01/22 10:50:41;;;;;;;27.80;19.33;;;2.50;99.90;;;;;;4954848;28;20605;-69
2023/01/22 10:53:23;;;;;;;28.63;20.33;;;2.60;99.90;;;;;;4954664;28;20561;-70
2023/01/22 10:55:55;;;;;;;31.77;21.43;;;2.50;99.90;;;;;;4985231;28;20660;-70
2023/01/22 10:58:24;;;;;;;32.53;21.67;;;2.60;99.90;;;;;;4952314;29;20183;-69
2023/01/22 11:01:17;;;;;;;28.67;22.60;;;2.60;99.90;;;;;;4954104;28;20230;-70
2023/01/22 11:03:43;;;;;;;27.63;21.87;;;2.50;99.90;;;;;;4962592;28;20222;-70
2023/01/22 11:06:23;;;;;;;29.07;21.20;;;2.50;99.90;;;;;;4973448;28;20215;-71
2023/01/22 11:08:58;;;;;;;30.57;22.13;;;2.50;99.90;;;;;;4973279;28;20223;-70
2023/01/22 11:11:31;;;;;;;32.73;23.00;;;2.40;99.90;;;;;;4973664;28;20583;-71
2023/01/22 11:14:05;;;;;;;31.33;23.10;;;2.40;99.90;;;;;;4973529;28;20185;-70
2023/01/22 11:16:35;;;;;;;29.30;22.63;;;2.50;99.90;;;;;;4973660;28;20184;-71
2023/01/22 11:19:14;;;;;;;28.73;21.93;;;2.50;99.90;;;;;;5004203;28;20258;-72
2023/01/22 11:21:50;;;;;;;34.27;23.53;;;2.50;99.90;;;;;;4972371;28;20230;-71
2023/01/22 11:24:41;;;;;;;34.07;23.77;;;2.50;99.90;;;;;;4973806;28;20621;-71
2023/01/22 11:27:20;;;;;;;32.10;22.87;;;2.50;99.90;;;;;;4971982;28;20188;-72
2023/01/22 11:29:49;;;;;;;36.57;23.43;;;2.50;99.90;;;;;;4973265;28;20195;-71
2023/01/22 11:32:49;;;;;;;29.70;22.93;;;2.50;99.90;;;;;;4972899;28;20546;-71
2023/01/22 11:35:31;;;;;;;29.93;20.97;;;2.50;99.90;;;;;;4973344;28;20193;-70
2023/01/22 11:38:09;;;;;;;34.13;23.23;;;2.40;99.90;;;;;;4971743;28;20211;-70
2023/01/22 11:40:58;;;;;;;28.53;22.40;;;2.40;99.90;;;;;;4973125;28;20189;-71
2023/01/22 11:43:39;;;;;;;30.30;22.97;;;2.30;99.90;;;;;;4966742;28;20284;-71
2023/01/22 11:46:31;;;;;;;31.27;24.57;;;2.30;99.90;;;;;;4971666;28;20181;-71
2023/01/22 11:49:03;;;;;;;30.23;23.30;;;2.20;99.90;;;;;;4972426;28;20221;-70
2023/01/22 11:51:40;;;;;;;32.60;24.37;;;2.20;99.90;;;;;;4973015;28;20683;-72
2023/01/22 11:54:24;;;;;;;30.83;22.53;;;2.20;99.90;;;;;;4972865;28;20273;-70
2023/01/22 11:57:02;;;;;;;30.17;22.47;;;2.20;99.90;;;;;;4971101;28;20180;-69
2023/01/22 11:59:46;;;;;;;31.57;23.33;;;2.30;99.90;;;;;;4972770;28;20196;-70
2023/01/22 12:02:30;;;;;;;32.60;22.10;;;2.30;99.90;;;;;;4972387;28;20295;-70
2023/01/22 12:05:12;;;;;;;34.57;21.83;;;2.30;99.90;;;;;;4972901;28;20623;-70
2023/01/22 12:08:01;;;;;;;27.77;21.33;;;2.20;99.90;;;;;;4971859;28;20216;-70
2023/01/22 12:10:51;;;;;;;37.67;24.40;;;2.20;99.90;;;;;;4973169;28;20185;-70
2023/01/22 12:13:29;;;;;;;31.93;22.87;;;2.20;99.90;;;;;;4972611;28;20195;-69
2023/01/22 12:15:58;;;;;;;33.23;21.47;;;2.30;99.90;;;;;;4972260;28;20575;-70
2023/01/22 12:18:45;;;;;;;26.37;20.60;;;2.30;99.90;;;;;;4970796;28;20528;-69
2023/01/22 12:21:40;;;;;;;28.03;22.17;;;2.30;99.90;;;;;;4972531;28;20692;-68
2023/01/22 12:24:30;;;;;;;30.03;21.50;;;2.40;99.90;;;;;;4972335;28;20276;-69
2023/01/22 12:27:02;;;;;;;32.27;23.17;;;2.40;99.90;;;;;;4971771;28;20700;-69
2023/01/22 12:29:32;;;;;;;27.23;20.33;;;2.50;99.90;;;;;;4971749;28;20226;-70
2023/01/22 12:32:09;;;;;;;29.23;18.90;;;2.50;99.90;;;;;;4970735;28;20204;-69
2023/01/22 12:34:50;;;;;;;28.37;18.43;;;2.60;99.90;;;;;;4972266;28;20188;-68
2023/01/22 12:37:36;;;;;;;26.27;18.40;;;2.60;99.90;;;;;;4970739;28;20226;-68
2023/01/22 12:40:22;;;;;;;25.73;17.73;;;2.60;99.90;;;;;;4971795;28;20280;-69
2023/01/22 12:43:06;;;;;;;27.37;16.73;;;2.60;99.90;;;;;;4971816;28;20805;-67
2023/01/22 12:45:58;;;;;;;24.47;16.87;;;2.70;99.90;;;;;;4970488;28;20719;-69
2023/01/22 12:49:06;;;;;;;25.27;18.60;;;2.70;99.90;;;;;;4969949;28;20594;-68
2023/01/22 12:51:47;;;;;;;28.33;18.37;;;2.70;99.90;;;;;;4956129;28;20291;-69
2023/01/22 12:54:22;;;;;;;26.57;19.03;;;2.80;99.90;;;;;;4962065;28;20215;-70
2023/01/22 12:56:49;;;;;;;29.53;18.77;;;2.80;99.90;;;;;;4966596;28;20876;-68
2023/01/22 12:59:48;;;;;;;31.97;18.50;;;2.80;99.90;;;;;;4971019;28;20187;-68
2023/01/22 13:02:27;;;;;;;24.80;18.23;;;2.70;99.90;;;;;;4948643;28;20243;-67
2023/01/22 13:04:53;;;;;;;29.67;18.27;;;2.70;99.90;;;;;;4971359;28;20184;-69
2023/01/22 13:07:28;;;;;;;27.47;20.03;;;2.70;99.90;;;;;;4971065;28;20268;-68
2023/01/22 13:10:03;;;;;;;22.90;18.00;;;2.70;99.90;;;;;;4970191;28;20270;-68
2023/01/22 13:12:42;;;;;;;22.87;16.83;;;2.60;99.90;;;;;;4970505;28;20247;-67
2023/01/22 13:15:22;;;;;;;25.50;17.93;;;2.60;99.90;;;;;;4970230;28;20660;-69
2023/01/22 13:17:54;;;;;;;25.47;18.30;;;2.60;99.90;;;;;;4971550;28;20607;-69
2023/01/22 13:20:21;;;;;;;24.77;18.63;;;2.60;99.90;;;;;;4973169;28;20659;-68
2023/01/22 13:22:47;;;;;;;25.17;17.67;;;2.60;99.90;;;;;;4975604;28;20206;-67
2023/01/22 13:25:27;;;;;;;23.63;17.10;;;2.60;99.90;;;;;;4975320;28;20199;-67
2023/01/22 13:27:54;;;;;;;23.90;17.63;;;2.60;99.90;;;;;;4973792;28;20249;-67
2023/01/22 13:30:27;;;;;;;23.63;17.57;;;2.60;99.90;;;;;;5007030;28;20190;-68
2023/01/22 13:33:03;;;;;;;25.63;17.50;;;2.60;99.90;;;;;;4975593;28;20209;-68
2023/01/22 13:35:29;;;;;;;26.20;17.27;;;2.60;99.90;;;;;;4975578;28;20212;-67
2023/01/22 13:37:55;;;;;;;22.83;16.77;;;2.60;99.90;;;;;;4975141;28;20233;-70
2023/01/22 13:40:26;;;;;;;25.13;17.30;;;2.50;99.90;;;;;;4973966;28;20213;-67
2023/01/22 13:42:53;;;;;;;22.97;17.10;;;2.50;99.90;;;;;;4974078;28;20290;-69
2023/01/22 13:45:25;;;;;;;26.73;17.87;;;2.50;99.90;;;;;;4975079;28;20183;-67
2023/01/22 13:47:56;;;;;;;24.50;18.80;;;2.40;99.90;;;;;;4974625;28;20636;-67
2023/01/22 13:50:26;;;;;;;27.37;19.63;;;2.40;99.90;;;;;;4974387;28;20593;-67
2023/01/22 13:52:52;;;;;;;27.07;19.57;;;2.40;99.90;;;;;;4975039;28;20291;-67
2023/01/22 13:55:21;;;;;;;25.37;17.53;;;2.40;99.90;;;;;;4973511;28;20639;-67
2023/01/22 13:57:50;;;;;;;29.10;20.07;;;2.40;99.90;;;;;;4974992;28;20612;-68
2023/01/22 14:00:31;;;;;;;44.43;26.90;;;2.40;99.90;;;;;;5006508;28;20634;-67
2023/01/22 14:02:58;;;;;;;31.07;20.30;;;2.40;99.90;;;;;;5006373;28;20249;-68
2023/01/22 14:05:30;;;;;;;32.13;21.23;;;2.40;99.90;;;;;;5006284;28;20215;-67
2023/01/22 14:08:10;;;;;;;28.67;20.07;;;2.50;99.90;;;;;;4974174;28;20277;-67
2023/01/22 14:10:37;;;;;;;24.57;18.30;;;2.50;99.90;;;;;;4975219;28;20203;-67
2023/01/22 14:13:05;;;;;;;25.50;17.77;;;2.50;99.90;;;;;;4973611;28;20192;-67
2023/01/22 14:15:31;;;;;;;28.67;17.50;;;2.50;99.90;;;;;;4974447;28;20569;-67
2023/01/22 14:18:07;;;;;;;23.23;16.83;;;2.50;99.90;;;;;;4974298;28;20275;-67
2023/01/22 14:20:33;;;;;;;30.17;17.87;;;2.50;99.90;;;;;;4974408;28;20195;-67
2023/01/22 14:22:59;;;;;;;23.93;17.80;;;2.50;99.90;;;;;;4966287;28;20187;-68
2023/01/22 14:25:25;;;;;;;23.03;18.60;;;2.40;99.90;;;;;;4955175;28;20193;-68
2023/01/22 14:27:51;;;;;;;24.97;17.30;;;2.50;99.90;;;;;;4954790;29;20268;-70
2023/01/22 14:30:19;;;;;;;25.20;17.37;;;2.50;99.90;;;;;;4955024;28;20188;-68
2023/01/22 14:32:45;;;;;;;22.50;17.07;;;2.50;99.90;;;;;;4952214;28;20750;-68
2023/01/22 14:35:16;;;;;;;24.23;18.20;;;2.40;99.90;;;;;;4954055;29;20189;-68
2023/01/22 14:37:42;;;;;;;21.30;16.73;;;2.40;99.90;;;;;;4973990;28;20194;-68
2023/01/22 14:40:10;;;;;;;24.30;17.27;;;2.40;99.90;;;;;;4974588;28;20223;-68
2023/01/22 14:42:36;;;;;;;27.00;15.77;;;2.50;99.90;;;;;;4973189;28;20207;-68
2023/01/22 14:45:03;;;;;;;20.50;16.37;;;2.40;99.90;;;;;;4974471;28;20206;-68
2023/01/22 14:47:28;;;;;;;21.50;16.37;;;2.50;99.90;;;;;;4973850;28;20302;-68
2023/01/22 14:49:54;;;;;;;23.40;16.90;;;2.50;99.90;;;;;;4974083;28;20323;-67
2023/01/22 14:52:20;;;;;;;20.77;15.67;;;2.50;99.90;;;;;;4974221;28;20198;-68
2023/01/22 14:54:45;;;;;;;28.43;15.83;;;2.50;99.90;;;;;;4974679;28;20259;-68
2023/01/22 14:57:11;;;;;;;19.57;15.23;;;2.50;99.90;;;;;;4973747;28;20203;-68
2023/01/22 14:59:37;;;;;;;21.87;16.70;;;2.50;99.90;;;;;;4975122;28;20184;-68
2023/01/22 15:02:03;;;;;;;20.77;15.93;;;2.40;99.90;;;;;;4973283;28;20270;-67
2023/01/22 15:04:29;;;;;;;20.10;16.00;;;2.40;99.90;;;;;;4973731;28;20184;-67
2023/01/22 15:06:54;;;;;;;19.50;15.80;;;2.50;99.90;;;;;;4973676;28;20308;-68
2023/01/22 15:09:20;;;;;;;19.87;15.53;;;2.50;99.90;;;;;;4973983;28;20560;-68
2023/01/22 15:11:46;;;;;;;20.00;16.73;;;2.50;99.90;;;;;;4972787;28;20212;-68
2023/01/22 15:14:11;;;;;;;20.53;15.97;;;2.40;99.90;;;;;;4973927;28;20181;-68
2023/01/22 15:16:39;;;;;;;24.00;16.17;;;2.40;99.90;;;;;;4973852;28;20183;-68
2023/01/22 15:19:04;;;;;;;21.50;15.97;;;2.40;99.90;;;;;;4973203;28;20193;-68
2023/01/22 15:21:30;;;;;;;20.83;16.23;;;2.40;99.90;;;;;;4973787;28;20270;-69
2023/01/22 15:23:56;;;;;;;22.50;16.57;;;2.40;99.90;;;;;;4974027;28;20221;-68
2023/01/22 15:26:25;;;;;;;25.47;18.87;;;2.40;99.90;;;;;;4973712;28;20184;-69
2023/01/22 15:28:52;;;;;;;22.97;18.00;;;2.40;99.90;;;;;;4972029;28;20209;-68
2023/01/22 15:31:18;;;;;;;22.23;17.17;;;2.40;99.90;;;;;;4973475;28;20657;-69
2023/01/22 15:33:43;;;;;;;25.63;17.67;;;2.30;99.90;;;;;;4973155;28;20226;-68
2023/01/22 15:36:09;;;;;;;23.23;17.07;;;2.30;99.90;;;;;;4973288;28;20223;-68
2023/01/22 15:38:35;;;;;;;23.93;18.80;;;2.30;99.90;;;;;;4973086;28;20196;-68
2023/01/22 15:41:05;;;;;;;23.70;18.43;;;2.20;99.90;;;;;;4973317;28;20210;-68
2023/01/22 15:43:31;;;;;;;24.23;18.40;;;2.20;99.90;;;;;;4971529;28;20278;-68
2023/01/22 15:45:57;;;;;;;22.13;16.97;;;2.20;99.90;;;;;;4972960;28;20271;-68
2023/01/22 15:48:23;;;;;;;22.13;18.40;;;2.20;99.90;;;;;;5004083;28;20689;-68
2023/01/22 15:50:48;;;;;;;26.70;17.77;;;2.20;99.90;;;;;;4973236;28;20202;-68
2023/01/22 15:53:14;;;;;;;21.30;17.70;;;2.10;99.90;;;;;;4971970;28;20185;-69
2023/01/22 15:55:47;;;;;;;22.47;18.00;;;2.10;99.90;;;;;;4973118;28;20183;-68
2023/01/22 15:58:13;;;;;;;19.93;16.00;;;2.10;99.90;;;;;;4972591;28;20289;-67
2023/01/22 16:00:39;;;;;;;18.83;16.73;;;2.00;99.90;;;;;;5003824;28;20295;-68
2023/01/22 16:03:04;;;;;;;19.23;16.03;;;1.90;99.90;;;;;;4971781;28;20553;-68
2023/01/22 16:05:30;;;;;;;19.10;16.57;;;1.90;99.90;;;;;;4973056;28;20530;-68
2023/01/22 16:07:56;;;;;;;18.17;15.10;;;1.90;99.90;;;;;;4972700;28;20214;-68
2023/01/22 16:10:21;;;;;;;20.60;16.00;;;1.90;99.90;;;;;;4972817;28;20180;-67
2023/01/22 16:12:47;;;;;;;20.07;15.77;;;1.80;99.90;;;;;;4972682;28;20294;-68
2023/01/22 16:15:13;;;;;;;20.73;16.60;;;1.80;99.90;;;;;;4972547;28;20254;-68
2023/01/22 16:17:39;;;;;;;25.03;18.37;;;1.80;99.90;;;;;;4971299;28;20196;-68
2023/01/22 16:20:05;;;;;;;23.57;17.73;;;1.90;99.90;;;;;;4972949;28;20719;-68
2023/01/22 16:22:30;;;;;;;26.07;18.33;;;1.90;99.90;;;;;;4972672;28;20315;-68
2023/01/22 16:24:56;;;;;;;24.00;18.30;;;1.90;99.90;;;;;;4972612;28;20615;-68
2023/01/22 16:27:22;;;;;;;25.60;16.50;;;1.90;99.90;;;;;;4972159;28;20195;-68
2023/01/22 16:29:48;;;;;;;23.53;16.93;;;1.90;99.90;;;;;;4972239;28;20204;-68
2023/01/22 16:32:14;;;;;;;28.43;20.10;;;1.90;99.90;;;;;;4972408;28;20587;-68
2023/01/22 16:34:39;;;;;;;25.53;18.30;;;1.90;99.90;;;;;;4972523;28;20188;-68
2023/01/22 16:37:05;;;;;;;20.60;18.07;;;1.90;99.90;;;;;;4972242;28;20267;-68
2023/01/22 16:39:32;;;;;;;26.30;19.70;;;1.80;99.90;;;;;;4972373;28;20191;-68
2023/01/22 16:41:58;;;;;;;26.20;17.70;;;1.80;99.90;;;;;;4971839;28;20208;-68
2023/01/22 16:44:26;;;;;;;23.20;17.30;;;1.80;99.90;;;;;;4970802;28;20676;-68
2023/01/22 16:46:53;;;;;;;25.00;18.20;;;1.70;99.90;;;;;;4971962;28;20568;-68
2023/01/22 16:49:24;;;;;;;23.67;17.40;;;1.70;99.90;;;;;;4970955;28;20212;-68
2023/01/22 16:51:52;;;;;;;23.50;16.73;;;1.70;99.90;;;;;;4972089;28;20212;-68